sensor_id;sensor_type;location;lat;lon;timestamp;P1;durP1;ratioP1;P2;durP2;ratioP2
27985;SDS011;15453;53.692;10.168;2023-01-19T00:00:35;21.95;;;12.35;;
27985;SDS011;15453;53.692;10.168;2023-01-19T00:03:02;20.13;;;12.35;;
27985;SDS011;15453;53.692;10.168;2023-01-19T00:05:28;18.92;;;11.27;;
27985;SDS011;15453;53.692;10.168;2023-01-19T00:07:54;23.38;;;11.85;;
27985;SDS011;15453;53.692;10.168;2023-01-19T00:10:19;21.15;;;12.43;;
27985;SDS011;15453;53.692;10.168;2023-01-19T00:12:44;22.58;;;11.75;;
27985;SDS011;15453;53.692;10.168;2023-01-19T00:15:10;20.95;;;11.50;;
27985;SDS011;15453;53.692;10.168;2023-01-19T00:17:36;21.90;;;11.60;;
27985;SDS011;15453;53.692;10.168;2023-01-19T00:20:01;24.15;;;12.73;;
27985;SDS011;15453;53.692;10.168;2023-01-19T00:22:27;21.02;;;11.82;;
27985;SDS011;15453;53.692;10.168;2023-01-19T00:24:53;20.02;;;12.00;;
27985;SDS011;15453;53.692;10.168;2023-01-19T00:27:18;21.27;;;12.18;;
27985;SDS011;15453;53.692;10.168;2023-01-19T00:29:43;20.27;;;12.52;;
27985;SDS011;15453;53.692;10.168;2023-01-19T00:32:08;19.33;;;11.95;;
27985;SDS011;15453;53.692;10.168;2023-01-19T00:34:34;21.35;;;11.55;;
27985;SDS011;15453;53.692;10.168;2023-01-19T00:37:03;17.10;;;11.27;;
27985;SDS011;15453;53.692;10.168;2023-01-19T00:39:29;19.83;;;11.93;;
27985;SDS011;15453;53.692;10.168;2023-01-19T00:41:55;18.30;;;11.82;;
27985;SDS011;15453;53.692;10.168;2023-01-19T00:44:38;19.58;;;12.05;;
27985;SDS011;15453;53.692;10.168;2023-01-19T00:47:04;17.88;;;10.95;;
27985;SDS011;15453;53.692;10.168;2023-01-19T00:49:29;20.70;;;11.52;;
27985;SDS011;15453;53.692;10.168;2023-01-19T00:52:04;22.48;;;12.13;;
27985;SDS011;15453;53.692;10.168;2023-01-19T00:54:29;20.35;;;12.30;;
27985;SDS011;15453;53.692;10.168;2023-01-19T00:56:54;19.52;;;12.18;;
27985;SDS011;15453;53.692;10.168;2023-01-19T00:59:20;18.98;;;11.75;;
27985;SDS011;15453;53.692;10.168;2023-01-19T01:01:45;21.10;;;12.10;;
27985;SDS011;15453;53.692;10.168;2023-01-19T01:04:10;25.85;;;13.00;;
27985;SDS011;15453;53.692;10.168;2023-01-19T01:06:36;20.83;;;12.48;;
27985;SDS011;15453;53.692;10.168;2023-01-19T01:09:01;26.23;;;10.73;;
27985;SDS011;15453;53.692;10.168;2023-01-19T01:11:35;20.67;;;11.98;;
27985;SDS011;15453;53.692;10.168;2023-01-19T01:14:01;21.92;;;11.93;;
27985;SDS011;15453;53.692;10.168;2023-01-19T01:16:26;21.75;;;12.77;;
27985;SDS011;15453;53.692;10.168;2023-01-19T01:18:51;22.65;;;13.45;;
27985;SDS011;15453;53.692;10.168;2023-01-19T01:21:17;21.08;;;12.50;;
27985;SDS011;15453;53.692;10.168;2023-01-19T01:23:42;21.42;;;12.05;;
27985;SDS011;15453;53.692;10.168;2023-01-19T01:26:07;21.80;;;12.48;;
27985;SDS011;15453;53.692;10.168;2023-01-19T01:28:32;21.85;;;13.18;;
27985;SDS011;15453;53.692;10.168;2023-01-19T01:30:58;18.67;;;11.52;;
27985;SDS011;15453;53.692;10.168;2023-01-19T01:33:23;20.23;;;11.80;;
27985;SDS011;15453;53.692;10.168;2023-01-19T01:35:48;20.02;;;12.65;;
27985;SDS011;15453;53.692;10.168;2023-01-19T01:38:14;20.75;;;12.63;;
27985;SDS011;15453;53.692;10.168;2023-01-19T01:40:40;21.42;;;12.27;;
27985;SDS011;15453;53.692;10.168;2023-01-19T01:43:10;20.45;;;11.95;;
27985;SDS011;15453;53.692;10.168;2023-01-19T01:45:39;23.30;;;12.25;;
27985;SDS011;15453;53.692;10.168;2023-01-19T01:48:09;19.40;;;12.27;;
27985;SDS011;15453;53.692;10.168;2023-01-19T01:50:57;18.52;;;11.70;;
27985;SDS011;15453;53.692;10.168;2023-01-19T01:53:46;18.98;;;11.07;;
27985;SDS011;15453;53.692;10.168;2023-01-19T01:56:16;22.63;;;11.93;;
27985;SDS011;15453;53.692;10.168;2023-01-19T01:58:45;17.48;;;11.68;;
27985;SDS011;15453;53.692;10.168;2023-01-19T02:01:11;20.85;;;12.38;;
27985;SDS011;15453;53.692;10.168;2023-01-19T02:03:55;19.90;;;12.98;;
27985;SDS011;15453;53.692;10.168;2023-01-19T02:06:21;21.42;;;12.48;;
27985;SDS011;15453;53.692;10.168;2023-01-19T02:08:49;20.83;;;11.73;;
27985;SDS011;15453;53.692;10.168;2023-01-19T02:11:38;23.17;;;12.70;;
27985;SDS011;15453;53.692;10.168;2023-01-19T02:14:22;20.10;;;11.60;;
27985;SDS011;15453;53.692;10.168;2023-01-19T02:16:47;25.88;;;12.38;;
27985;SDS011;15453;53.692;10.168;2023-01-19T02:19:15;17.65;;;11.65;;
27985;SDS011;15453;53.692;10.168;2023-01-19T02:21:47;18.77;;;11.30;;
27985;SDS011;15453;53.692;10.168;2023-01-19T02:24:22;20.13;;;11.73;;
27985;SDS011;15453;53.692;10.168;2023-01-19T02:26:48;19.58;;;11.20;;
27985;SDS011;15453;53.692;10.168;2023-01-19T02:31:44;21.55;;;12.88;;
27985;SDS011;15453;53.692;10.168;2023-01-19T02:34:11;22.23;;;11.27;;
27985;SDS011;15453;53.692;10.168;2023-01-19T02:39:10;18.10;;;11.65;;
27985;SDS011;15453;53.692;10.168;2023-01-19T02:41:39;17.67;;;11.52;;
27985;SDS011;15453;53.692;10.168;2023-01-19T02:44:08;17.80;;;11.27;;
27985;SDS011;15453;53.692;10.168;2023-01-19T02:46:35;19.35;;;11.60;;
27985;SDS011;15453;53.692;10.168;2023-01-19T02:49:01;20.33;;;11.40;;
27985;SDS011;15453;53.692;10.168;2023-01-19T02:51:27;18.52;;;11.10;;
27985;SDS011;15453;53.692;10.168;2023-01-19T02:54:01;20.25;;;12.02;;
27985;SDS011;15453;53.692;10.168;2023-01-19T02:56:43;18.85;;;11.13;;
27985;SDS011;15453;53.692;10.168;2023-01-19T03:02:22;15.70;;;10.95;;
27985;SDS011;15453;53.692;10.168;2023-01-19T03:07:57;19.38;;;11.45;;
27985;SDS011;15453;53.692;10.168;2023-01-19T03:18:55;19.63;;;12.32;;
27985;SDS011;15453;53.692;10.168;2023-01-19T03:21:26;18.85;;;11.68;;
27985;SDS011;15453;53.692;10.168;2023-01-19T03:23:53;17.88;;;11.32;;
27985;SDS011;15453;53.692;10.168;2023-01-19T03:26:26;17.20;;;11.27;;
27985;SDS011;15453;53.692;10.168;2023-01-19T03:28:54;16.27;;;10.68;;
27985;SDS011;15453;53.692;10.168;2023-01-19T03:31:21;16.25;;;10.77;;
27985;SDS011;15453;53.692;10.168;2023-01-19T03:33:50;18.60;;;10.82;;
27985;SDS011;15453;53.692;10.168;2023-01-19T03:36:22;19.27;;;11.95;;
27985;SDS011;15453;53.692;10.168;2023-01-19T03:38:51;18.48;;;12.07;;
27985;SDS011;15453;53.692;10.168;2023-01-19T03:41:17;17.92;;;11.88;;
27985;SDS011;15453;53.692;10.168;2023-01-19T03:43:46;17.20;;;11.38;;
27985;SDS011;15453;53.692;10.168;2023-01-19T03:46:13;20.88;;;12.15;;
27985;SDS011;15453;53.692;10.168;2023-01-19T03:48:41;20.17;;;12.35;;
27985;SDS011;15453;53.692;10.168;2023-01-19T03:51:07;22.15;;;12.07;;
27985;SDS011;15453;53.692;10.168;2023-01-19T03:53:34;20.73;;;12.40;;
27985;SDS011;15453;53.692;10.168;2023-01-19T03:56:00;23.40;;;12.57;;
27985;SDS011;15453;53.692;10.168;2023-01-19T03:58:25;17.30;;;11.70;;
27985;SDS011;15453;53.692;10.168;2023-01-19T04:00:50;17.48;;;12.32;;
27985;SDS011;15453;53.692;10.168;2023-01-19T04:03:16;19.73;;;12.70;;
27985;SDS011;15453;53.692;10.168;2023-01-19T04:05:42;18.90;;;11.75;;
27985;SDS011;15453;53.692;10.168;2023-01-19T04:08:08;18.17;;;12.38;;
27985;SDS011;15453;53.692;10.168;2023-01-19T04:10:33;23.42;;;12.05;;
27985;SDS011;15453;53.692;10.168;2023-01-19T04:12:59;20.10;;;12.57;;
27985;SDS011;15453;53.692;10.168;2023-01-19T04:15:25;20.15;;;11.95;;
27985;SDS011;15453;53.692;10.168;2023-01-19T04:17:51;17.85;;;11.93;;
27985;SDS011;15453;53.692;10.168;2023-01-19T04:20:16;19.92;;;12.25;;
27985;SDS011;15453;53.692;10.168;2023-01-19T04:22:41;16.50;;;10.68;;
27985;SDS011;15453;53.692;10.168;2023-01-19T04:25:07;19.00;;;11.82;;
27985;SDS011;15453;53.692;10.168;2023-01-19T04:27:34;18.92;;;10.88;;
27985;SDS011;15453;53.692;10.168;2023-01-19T04:29:59;17.67;;;11.30;;
27985;SDS011;15453;53.692;10.168;2023-01-19T04:32:25;19.27;;;11.63;;
27985;SDS011;15453;53.692;10.168;2023-01-19T04:34:50;19.95;;;11.93;;
27985;SDS011;15453;53.692;10.168;2023-01-19T04:37:15;18.15;;;11.68;;
27985;SDS011;15453;53.692;10.168;2023-01-19T04:39:41;18.60;;;13.20;;
27985;SDS011;15453;53.692;10.168;2023-01-19T04:42:06;18.63;;;12.18;;
27985;SDS011;15453;53.692;10.168;2023-01-19T04:44:31;16.63;;;12.05;;
27985;SDS011;15453;53.692;10.168;2023-01-19T04:46:57;19.63;;;13.20;;
27985;SDS011;15453;53.692;10.168;2023-01-19T04:49:22;18.83;;;12.57;;
27985;SDS011;15453;53.692;10.168;2023-01-19T04:51:47;22.15;;;13.35;;
27985;SDS011;15453;53.692;10.168;2023-01-19T04:54:13;18.85;;;12.52;;
27985;SDS011;15453;53.692;10.168;2023-01-19T04:56:38;20.60;;;12.80;;
27985;SDS011;15453;53.692;10.168;2023-01-19T04:59:05;18.33;;;13.63;;
27985;SDS011;15453;53.692;10.168;2023-01-19T05:01:30;22.77;;;14.07;;
27985;SDS011;15453;53.692;10.168;2023-01-19T05:03:57;16.02;;;12.13;;
27985;SDS011;15453;53.692;10.168;2023-01-19T05:06:22;19.58;;;12.50;;
27985;SDS011;15453;53.692;10.168;2023-01-19T05:08:48;19.30;;;13.23;;
27985;SDS011;15453;53.692;10.168;2023-01-19T05:11:13;24.75;;;13.95;;
27985;SDS011;15453;53.692;10.168;2023-01-19T05:13:38;21.83;;;13.82;;
27985;SDS011;15453;53.692;10.168;2023-01-19T05:16:03;27.02;;;14.40;;
27985;SDS011;15453;53.692;10.168;2023-01-19T05:18:30;21.10;;;14.10;;
27985;SDS011;15453;53.692;10.168;2023-01-19T05:21:00;19.55;;;13.48;;
27985;SDS011;15453;53.692;10.168;2023-01-19T05:23:26;17.95;;;13.27;;
27985;SDS011;15453;53.692;10.168;2023-01-19T05:25:51;25.10;;;14.95;;
27985;SDS011;15453;53.692;10.168;2023-01-19T05:28:16;21.85;;;14.52;;
27985;SDS011;15453;53.692;10.168;2023-01-19T05:30:41;21.33;;;13.00;;
27985;SDS011;15453;53.692;10.168;2023-01-19T05:33:07;22.23;;;14.35;;
27985;SDS011;15453;53.692;10.168;2023-01-19T05:35:32;23.45;;;13.77;;
27985;SDS011;15453;53.692;10.168;2023-01-19T05:37:57;20.70;;;13.43;;
27985;SDS011;15453;53.692;10.168;2023-01-19T05:40:22;22.17;;;13.70;;
27985;SDS011;15453;53.692;10.168;2023-01-19T05:42:47;20.85;;;14.73;;
27985;SDS011;15453;53.692;10.168;2023-01-19T05:45:13;19.63;;;14.05;;
27985;SDS011;15453;53.692;10.168;2023-01-19T05:47:38;18.77;;;12.25;;
27985;SDS011;15453;53.692;10.168;2023-01-19T05:50:04;20.30;;;13.85;;
27985;SDS011;15453;53.692;10.168;2023-01-19T05:52:29;19.75;;;13.68;;
27985;SDS011;15453;53.692;10.168;2023-01-19T05:54:55;19.23;;;13.43;;
27985;SDS011;15453;53.692;10.168;2023-01-19T05:57:20;21.60;;;14.25;;
27985;SDS011;15453;53.692;10.168;2023-01-19T05:59:46;23.10;;;15.07;;
27985;SDS011;15453;53.692;10.168;2023-01-19T06:02:11;22.35;;;14.93;;
27985;SDS011;15453;53.692;10.168;2023-01-19T06:04:36;20.35;;;15.05;;
27985;SDS011;15453;53.692;10.168;2023-01-19T06:07:02;23.60;;;14.98;;
27985;SDS011;15453;53.692;10.168;2023-01-19T06:09:27;19.88;;;14.35;;
27985;SDS011;15453;53.692;10.168;2023-01-19T06:11:53;24.42;;;16.02;;
27985;SDS011;15453;53.692;10.168;2023-01-19T06:14:20;20.17;;;14.73;;
27985;SDS011;15453;53.692;10.168;2023-01-19T06:16:45;22.45;;;14.57;;
27985;SDS011;15453;53.692;10.168;2023-01-19T06:19:10;25.02;;;16.52;;
27985;SDS011;15453;53.692;10.168;2023-01-19T06:21:36;25.05;;;15.35;;
27985;SDS011;15453;53.692;10.168;2023-01-19T06:24:01;21.58;;;14.32;;
27985;SDS011;15453;53.692;10.168;2023-01-19T06:26:27;22.80;;;14.93;;
27985;SDS011;15453;53.692;10.168;2023-01-19T06:28:52;21.55;;;15.32;;
27985;SDS011;15453;53.692;10.168;2023-01-19T06:31:18;32.13;;;15.00;;
27985;SDS011;15453;53.692;10.168;2023-01-19T06:33:43;22.95;;;16.33;;
27985;SDS011;15453;53.692;10.168;2023-01-19T06:36:08;21.52;;;15.27;;
27985;SDS011;15453;53.692;10.168;2023-01-19T06:38:34;24.17;;;15.80;;
27985;SDS011;15453;53.692;10.168;2023-01-19T06:40:59;24.63;;;16.20;;
27985;SDS011;15453;53.692;10.168;2023-01-19T06:43:26;20.58;;;15.07;;
27985;SDS011;15453;53.692;10.168;2023-01-19T06:45:52;19.45;;;14.43;;
27985;SDS011;15453;53.692;10.168;2023-01-19T06:48:17;21.08;;;15.45;;
27985;SDS011;15453;53.692;10.168;2023-01-19T06:50:43;22.65;;;16.35;;
27985;SDS011;15453;53.692;10.168;2023-01-19T06:53:09;22.48;;;15.88;;
27985;SDS011;15453;53.692;10.168;2023-01-19T06:55:35;20.48;;;15.57;;
27985;SDS011;15453;53.692;10.168;2023-01-19T06:58:00;21.27;;;15.00;;
27985;SDS011;15453;53.692;10.168;2023-01-19T07:00:26;20.08;;;15.35;;
27985;SDS011;15453;53.692;10.168;2023-01-19T07:02:52;15.70;;;12.98;;
27985;SDS011;15453;53.692;10.168;2023-01-19T07:05:18;20.77;;;14.70;;
27985;SDS011;15453;53.692;10.168;2023-01-19T07:07:43;18.63;;;12.60;;
27985;SDS011;15453;53.692;10.168;2023-01-19T07:10:09;15.90;;;12.80;;
27985;SDS011;15453;53.692;10.168;2023-01-19T07:12:36;16.75;;;12.75;;
27985;SDS011;15453;53.692;10.168;2023-01-19T07:15:02;15.88;;;12.50;;
27985;SDS011;15453;53.692;10.168;2023-01-19T07:17:27;15.55;;;13.13;;
27985;SDS011;15453;53.692;10.168;2023-01-19T07:19:52;15.30;;;11.85;;
27985;SDS011;15453;53.692;10.168;2023-01-19T07:22:18;15.15;;;12.00;;
27985;SDS011;15453;53.692;10.168;2023-01-19T07:24:43;17.33;;;12.77;;
27985;SDS011;15453;53.692;10.168;2023-01-19T07:27:08;20.17;;;12.88;;
27985;SDS011;15453;53.692;10.168;2023-01-19T07:29:35;18.33;;;12.93;;
27985;SDS011;15453;53.692;10.168;2023-01-19T07:32:00;17.70;;;12.77;;
27985;SDS011;15453;53.692;10.168;2023-01-19T07:34:25;16.88;;;12.75;;
27985;SDS011;15453;53.692;10.168;2023-01-19T07:36:51;17.80;;;13.43;;
27985;SDS011;15453;53.692;10.168;2023-01-19T07:39:16;18.42;;;13.68;;
27985;SDS011;15453;53.692;10.168;2023-01-19T07:41:41;17.13;;;13.25;;
27985;SDS011;15453;53.692;10.168;2023-01-19T07:44:06;18.50;;;14.05;;
27985;SDS011;15453;53.692;10.168;2023-01-19T07:46:32;16.65;;;12.85;;
27985;SDS011;15453;53.692;10.168;2023-01-19T07:48:58;19.15;;;13.88;;
27985;SDS011;15453;53.692;10.168;2023-01-19T07:51:23;18.25;;;14.00;;
27985;SDS011;15453;53.692;10.168;2023-01-19T07:53:48;20.35;;;14.35;;
27985;SDS011;15453;53.692;10.168;2023-01-19T07:56:14;18.33;;;13.23;;
27985;SDS011;15453;53.692;10.168;2023-01-19T07:58:39;18.25;;;13.98;;
27985;SDS011;15453;53.692;10.168;2023-01-19T08:01:08;22.05;;;16.60;;
27985;SDS011;15453;53.692;10.168;2023-01-19T08:03:35;20.90;;;15.70;;
27985;SDS011;15453;53.692;10.168;2023-01-19T08:06:00;24.35;;;16.95;;
27985;SDS011;15453;53.692;10.168;2023-01-19T08:08:28;22.05;;;14.90;;
27985;SDS011;15453;53.692;10.168;2023-01-19T08:10:53;21.05;;;15.80;;
27985;SDS011;15453;53.692;10.168;2023-01-19T08:13:18;22.58;;;16.15;;
27985;SDS011;15453;53.692;10.168;2023-01-19T08:15:44;20.17;;;15.00;;
27985;SDS011;15453;53.692;10.168;2023-01-19T08:18:12;22.70;;;15.70;;
27985;SDS011;15453;53.692;10.168;2023-01-19T08:20:39;22.90;;;16.38;;
27985;SDS011;15453;53.692;10.168;2023-01-19T08:23:05;23.17;;;16.67;;
27985;SDS011;15453;53.692;10.168;2023-01-19T08:28:00;23.67;;;17.98;;
27985;SDS011;15453;53.692;10.168;2023-01-19T08:30:26;19.17;;;15.05;;
27985;SDS011;15453;53.692;10.168;2023-01-19T08:32:53;25.92;;;16.75;;
27985;SDS011;15453;53.692;10.168;2023-01-19T08:35:21;24.40;;;17.05;;
27985;SDS011;15453;53.692;10.168;2023-01-19T08:37:47;21.95;;;16.02;;
27985;SDS011;15453;53.692;10.168;2023-01-19T08:40:13;22.20;;;15.98;;
27985;SDS011;15453;53.692;10.168;2023-01-19T08:42:39;23.42;;;15.35;;
27985;SDS011;15453;53.692;10.168;2023-01-19T08:45:04;23.52;;;16.70;;
27985;SDS011;15453;53.692;10.168;2023-01-19T08:47:29;21.95;;;15.95;;
27985;SDS011;15453;53.692;10.168;2023-01-19T08:49:55;20.35;;;15.00;;
27985;SDS011;15453;53.692;10.168;2023-01-19T08:52:20;19.45;;;14.95;;
27985;SDS011;15453;53.692;10.168;2023-01-19T08:54:45;22.30;;;15.90;;
27985;SDS011;15453;53.692;10.168;2023-01-19T08:57:10;20.83;;;15.70;;
27985;SDS011;15453;53.692;10.168;2023-01-19T08:59:36;25.63;;;16.65;;
27985;SDS011;15453;53.692;10.168;2023-01-19T09:02:02;23.25;;;15.93;;
27985;SDS011;15453;53.692;10.168;2023-01-19T09:04:27;23.67;;;16.17;;
27985;SDS011;15453;53.692;10.168;2023-01-19T09:06:52;22.33;;;15.95;;
27985;SDS011;15453;53.692;10.168;2023-01-19T09:09:17;21.00;;;15.07;;
27985;SDS011;15453;53.692;10.168;2023-01-19T09:11:43;21.55;;;15.40;;
27985;SDS011;15453;53.692;10.168;2023-01-19T09:14:08;22.25;;;15.80;;
27985;SDS011;15453;53.692;10.168;2023-01-19T09:16:33;23.52;;;16.58;;
27985;SDS011;15453;53.692;10.168;2023-01-19T09:18:58;22.38;;;15.05;;
27985;SDS011;15453;53.692;10.168;2023-01-19T09:21:24;20.02;;;14.52;;
27985;SDS011;15453;53.692;10.168;2023-01-19T09:23:49;22.88;;;15.90;;
27985;SDS011;15453;53.692;10.168;2023-01-19T09:26:15;20.55;;;15.52;;
27985;SDS011;15453;53.692;10.168;2023-01-19T09:28:40;24.23;;;15.88;;
27985;SDS011;15453;53.692;10.168;2023-01-19T09:31:06;22.20;;;15.88;;
27985;SDS011;15453;53.692;10.168;2023-01-19T09:33:32;22.27;;;15.02;;
27985;SDS011;15453;53.692;10.168;2023-01-19T09:35:57;21.35;;;15.50;;
27985;SDS011;15453;53.692;10.168;2023-01-19T09:38:23;24.45;;;16.20;;
27985;SDS011;15453;53.692;10.168;2023-01-19T09:40:50;22.92;;;15.95;;
27985;SDS011;15453;53.692;10.168;2023-01-19T09:46:11;24.42;;;16.38;;
27985;SDS011;15453;53.692;10.168;2023-01-19T09:48:57;25.10;;;18.02;;
27985;SDS011;15453;53.692;10.168;2023-01-19T09:51:30;23.05;;;17.05;;
27985;SDS011;15453;53.692;10.168;2023-01-19T09:56:30;23.25;;;17.10;;
27985;SDS011;15453;53.692;10.168;2023-01-19T09:58:56;26.15;;;17.38;;
27985;SDS011;15453;53.692;10.168;2023-01-19T10:01:27;25.15;;;16.40;;
27985;SDS011;15453;53.692;10.168;2023-01-19T10:04:04;23.45;;;17.10;;
27985;SDS011;15453;53.692;10.168;2023-01-19T10:06:38;22.52;;;16.55;;
27985;SDS011;15453;53.692;10.168;2023-01-19T10:09:09;27.98;;;16.85;;
27985;SDS011;15453;53.692;10.168;2023-01-19T10:14:50;22.98;;;17.00;;
27985;SDS011;15453;53.692;10.168;2023-01-19T10:20:18;22.95;;;17.08;;
27985;SDS011;15453;53.692;10.168;2023-01-19T10:22:50;23.13;;;16.65;;
27985;SDS011;15453;53.692;10.168;2023-01-19T10:25:20;24.95;;;16.60;;
27985;SDS011;15453;53.692;10.168;2023-01-19T10:27:48;23.02;;;15.95;;
27985;SDS011;15453;53.692;10.168;2023-01-19T10:30:15;22.90;;;16.75;;
27985;SDS011;15453;53.692;10.168;2023-01-19T10:32:46;25.13;;;16.75;;
27985;SDS011;15453;53.692;10.168;2023-01-19T10:35:16;24.40;;;17.73;;
27985;SDS011;15453;53.692;10.168;2023-01-19T10:37:50;20.52;;;15.57;;
27985;SDS011;15453;53.692;10.168;2023-01-19T10:40:33;29.38;;;17.35;;
27985;SDS011;15453;53.692;10.168;2023-01-19T10:46:00;22.02;;;15.85;;
27985;SDS011;15453;53.692;10.168;2023-01-19T10:48:35;22.77;;;16.27;;
27985;SDS011;15453;53.692;10.168;2023-01-19T10:51:02;24.20;;;16.70;;
27985;SDS011;15453;53.692;10.168;2023-01-19T10:53:29;25.20;;;16.98;;
27985;SDS011;15453;53.692;10.168;2023-01-19T10:56:16;24.17;;;16.48;;
27985;SDS011;15453;53.692;10.168;2023-01-19T10:58:41;20.63;;;15.32;;
27985;SDS011;15453;53.692;10.168;2023-01-19T11:01:25;24.38;;;16.10;;
27985;SDS011;15453;53.692;10.168;2023-01-19T11:03:51;24.02;;;15.45;;
27985;SDS011;15453;53.692;10.168;2023-01-19T11:06:19;23.42;;;15.73;;
27985;SDS011;15453;53.692;10.168;2023-01-19T11:08:47;23.87;;;15.47;;
27985;SDS011;15453;53.692;10.168;2023-01-19T11:11:16;20.58;;;15.07;;
27985;SDS011;15453;53.692;10.168;2023-01-19T11:13:42;23.00;;;14.57;;
27985;SDS011;15453;53.692;10.168;2023-01-19T11:16:24;18.58;;;14.57;;
27985;SDS011;15453;53.692;10.168;2023-01-19T11:18:53;18.90;;;13.50;;
27985;SDS011;15453;53.692;10.168;2023-01-19T11:21:24;21.23;;;15.15;;
27985;SDS011;15453;53.692;10.168;2023-01-19T11:23:52;20.08;;;14.48;;
27985;SDS011;15453;53.692;10.168;2023-01-19T11:29:39;20.85;;;15.05;;
27985;SDS011;15453;53.692;10.168;2023-01-19T11:32:08;21.85;;;15.90;;
27985;SDS011;15453;53.692;10.168;2023-01-19T11:34:35;20.52;;;14.95;;
27985;SDS011;15453;53.692;10.168;2023-01-19T11:39:52;21.13;;;14.35;;
27985;SDS011;15453;53.692;10.168;2023-01-19T11:42:20;17.70;;;12.43;;
27985;SDS011;15453;53.692;10.168;2023-01-19T11:47:40;17.42;;;13.40;;
27985;SDS011;15453;53.692;10.168;2023-01-19T11:52:49;19.60;;;14.20;;
27985;SDS011;15453;53.692;10.168;2023-01-19T11:55:39;17.30;;;12.77;;
27985;SDS011;15453;53.692;10.168;2023-01-19T11:58:14;17.15;;;13.20;;
27985;SDS011;15453;53.692;10.168;2023-01-19T12:00:42;19.08;;;12.88;;
27985;SDS011;15453;53.692;10.168;2023-01-19T12:06:03;16.10;;;11.88;;
27985;SDS011;15453;53.692;10.168;2023-01-19T12:08:35;17.77;;;12.88;;
27985;SDS011;15453;53.692;10.168;2023-01-19T12:11:05;17.85;;;12.60;;
27985;SDS011;15453;53.692;10.168;2023-01-19T12:13:34;18.10;;;13.63;;
27985;SDS011;15453;53.692;10.168;2023-01-19T12:16:07;17.33;;;13.23;;
27985;SDS011;15453;53.692;10.168;2023-01-19T12:18:42;19.35;;;13.45;;
27985;SDS011;15453;53.692;10.168;2023-01-19T12:21:11;18.83;;;13.75;;
27985;SDS011;15453;53.692;10.168;2023-01-19T12:23:40;19.85;;;13.38;;
27985;SDS011;15453;53.692;10.168;2023-01-19T12:28:41;17.67;;;12.98;;
27985;SDS011;15453;53.692;10.168;2023-01-19T12:31:12;16.55;;;11.98;;
27985;SDS011;15453;53.692;10.168;2023-01-19T12:33:40;16.63;;;12.52;;
27985;SDS011;15453;53.692;10.168;2023-01-19T12:38:35;17.17;;;12.80;;
27985;SDS011;15453;53.692;10.168;2023-01-19T12:43:42;16.90;;;12.35;;
27985;SDS011;15453;53.692;10.168;2023-01-19T12:48:52;18.95;;;12.43;;
27985;SDS011;15453;53.692;10.168;2023-01-19T12:51:25;22.52;;;12.15;;
27985;SDS011;15453;53.692;10.168;2023-01-19T12:53:51;19.92;;;11.95;;
27985;SDS011;15453;53.692;10.168;2023-01-19T12:56:18;16.83;;;11.52;;
27985;SDS011;15453;53.692;10.168;2023-01-19T12:58:51;17.75;;;11.15;;
27985;SDS011;15453;53.692;10.168;2023-01-19T13:01:17;19.20;;;12.07;;
27985;SDS011;15453;53.692;10.168;2023-01-19T13:03:56;18.83;;;11.35;;
27985;SDS011;15453;53.692;10.168;2023-01-19T13:09:29;16.25;;;11.70;;
27985;SDS011;15453;53.692;10.168;2023-01-19T13:15:24;13.75;;;10.23;;
27985;SDS011;15453;53.692;10.168;2023-01-19T13:17:52;14.43;;;10.05;;
27985;SDS011;15453;53.692;10.168;2023-01-19T13:20:22;14.65;;;10.15;;
27985;SDS011;15453;53.692;10.168;2023-01-19T13:25:38;13.02;;;9.65;;
27985;SDS011;15453;53.692;10.168;2023-01-19T13:28:06;14.43;;;10.45;;
27985;SDS011;15453;53.692;10.168;2023-01-19T13:30:33;14.35;;;9.90;;
27985;SDS011;15453;53.692;10.168;2023-01-19T13:33:05;13.32;;;10.43;;
27985;SDS011;15453;53.692;10.168;2023-01-19T13:35:39;14.10;;;10.27;;
27985;SDS011;15453;53.692;10.168;2023-01-19T13:38:04;19.70;;;11.00;;
27985;SDS011;15453;53.692;10.168;2023-01-19T13:40:32;14.13;;;10.90;;
27985;SDS011;15453;53.692;10.168;2023-01-19T13:43:02;21.02;;;13.30;;
27985;SDS011;15453;53.692;10.168;2023-01-19T13:45:37;16.20;;;11.85;;
27985;SDS011;15453;53.692;10.168;2023-01-19T13:48:04;19.48;;;12.57;;
27985;SDS011;15453;53.692;10.168;2023-01-19T13:50:33;17.73;;;11.60;;
27985;SDS011;15453;53.692;10.168;2023-01-19T13:53:01;14.27;;;10.65;;
27985;SDS011;15453;53.692;10.168;2023-01-19T13:55:29;14.35;;;10.40;;
27985;SDS011;15453;53.692;10.168;2023-01-19T13:57:54;15.40;;;10.77;;
27985;SDS011;15453;53.692;10.168;2023-01-19T14:00:27;14.00;;;10.52;;
27985;SDS011;15453;53.692;10.168;2023-01-19T14:03:00;19.40;;;10.65;;
27985;SDS011;15453;53.692;10.168;2023-01-19T14:05:37;15.57;;;10.85;;
27985;SDS011;15453;53.692;10.168;2023-01-19T14:10:35;15.45;;;11.30;;
27985;SDS011;15453;53.692;10.168;2023-01-19T14:13:03;16.10;;;11.32;;
27985;SDS011;15453;53.692;10.168;2023-01-19T14:15:31;17.08;;;11.55;;
27985;SDS011;15453;53.692;10.168;2023-01-19T14:23:41;15.35;;;10.48;;
27985;SDS011;15453;53.692;10.168;2023-01-19T14:31:49;15.07;;;10.45;;
27985;SDS011;15453;53.692;10.168;2023-01-19T14:42:37;14.60;;;10.13;;
27985;SDS011;15453;53.692;10.168;2023-01-19T14:45:19;14.48;;;10.13;;
27985;SDS011;15453;53.692;10.168;2023-01-19T14:47:55;13.07;;;10.45;;
27985;SDS011;15453;53.692;10.168;2023-01-19T14:50:26;12.98;;;9.32;;
27985;SDS011;15453;53.692;10.168;2023-01-19T14:52:58;16.63;;;10.13;;
27985;SDS011;15453;53.692;10.168;2023-01-19T14:55:32;15.30;;;10.63;;
27985;SDS011;15453;53.692;10.168;2023-01-19T14:58:03;15.85;;;9.77;;
27985;SDS011;15453;53.692;10.168;2023-01-19T15:00:34;15.75;;;9.73;;
27985;SDS011;15453;53.692;10.168;2023-01-19T15:02:59;15.88;;;9.93;;
27985;SDS011;15453;53.692;10.168;2023-01-19T15:05:24;13.80;;;9.40;;
27985;SDS011;15453;53.692;10.168;2023-01-19T15:07:49;15.98;;;10.57;;
27985;SDS011;15453;53.692;10.168;2023-01-19T15:10:18;14.80;;;8.75;;
27985;SDS011;15453;53.692;10.168;2023-01-19T15:12:46;13.68;;;9.32;;
27985;SDS011;15453;53.692;10.168;2023-01-19T15:15:19;14.00;;;7.53;;
27985;SDS011;15453;53.692;10.168;2023-01-19T15:17:55;17.35;;;8.05;;
27985;SDS011;15453;53.692;10.168;2023-01-19T15:20:22;10.95;;;7.05;;
27985;SDS011;15453;53.692;10.168;2023-01-19T15:22:47;14.43;;;7.70;;
27985;SDS011;15453;53.692;10.168;2023-01-19T15:25:14;8.07;;;5.75;;
27985;SDS011;15453;53.692;10.168;2023-01-19T15:27:41;9.02;;;4.63;;
27985;SDS011;15453;53.692;10.168;2023-01-19T15:32:44;13.82;;;6.32;;
27985;SDS011;15453;53.692;10.168;2023-01-19T15:35:13;14.70;;;7.00;;
27985;SDS011;15453;53.692;10.168;2023-01-19T15:37:42;12.70;;;8.25;;
27985;SDS011;15453;53.692;10.168;2023-01-19T15:40:08;12.77;;;7.65;;
27985;SDS011;15453;53.692;10.168;2023-01-19T15:42:34;14.65;;;7.88;;
27985;SDS011;15453;53.692;10.168;2023-01-19T15:44:59;12.38;;;7.50;;
27985;SDS011;15453;53.692;10.168;2023-01-19T15:47:25;11.02;;;7.32;;